Аэропорт: Актобе. Актобе

ICAO: UATT

METAR:
Информация по данной станции не доступна
METAR:
2021-01-26 23:05:00
TAF UATT 262305Z 2700/2724 15003MPS 3100 -SN BR BKN005 TXM04/2711Z TNM15/2700Z TEMPO 2700/2706 0300 FZFG VV002